Vail, Washington
Current Conditions -  °F | °C
As of 1:54 AM on Sunday 23 Nov 2014 (Local Time) from KOLM Reporting Station
Overcast Overcast  
Wind Chill: 40°   Ceiling: 3700
Heat Index: 45°   Visibility: 10mi
Dew Point: 42°   Wind: 9mph
Humidity: 90%   Direction: 210°SSW
Pressure: 30.18"   Gusts: NA
Location:  46.8214°N, 122.662°W
Report Text: KOLM 230954Z AUTO 21008KT 10SM SCT027 BKN037 OVC060 07/06 A3018 RMK AO2 SLP222 T00720056 $
Loading
Personal Weather Stations






























Interactive Weather Map New forecast layout! Learn more

10-Day Weather Forecast

Advertisements
Track Severe Weather on mobile